createdAt,value
2018-06-04T00:01:11.916Z,14.60
2018-06-04T00:03:41.506Z,14.70
2018-06-04T00:06:11.204Z,14.70
2018-06-04T00:08:41.934Z,14.70
2018-06-04T00:11:11.607Z,14.70
2018-06-04T00:13:41.592Z,14.70
2018-06-04T00:16:12.443Z,14.70
2018-06-04T00:21:11.666Z,14.70
2018-06-04T00:23:41.165Z,14.70
2018-06-04T00:26:10.837Z,14.70
2018-06-04T00:28:41.235Z,14.80
2018-06-04T00:31:10.767Z,14.80
2018-06-04T00:33:40.426Z,14.80
2018-06-04T00:36:10.715Z,14.80
2018-06-04T00:38:40.446Z,14.80
2018-06-04T00:41:10.740Z,14.80
2018-06-04T00:43:40.742Z,14.80
2018-06-04T00:46:10.680Z,14.80
2018-06-04T00:48:40.552Z,14.80
2018-06-04T00:51:09.919Z,14.80
2018-06-04T00:53:39.560Z,14.80
2018-06-04T00:56:22.062Z,14.80
2018-06-04T01:02:49.896Z,14.90
2018-06-04T01:05:19.188Z,14.90
2018-06-04T01:07:51.139Z,14.80
2018-06-04T01:10:20.435Z,14.90
2018-06-04T01:12:50.046Z,14.90
2018-06-04T01:15:19.290Z,14.90
2018-06-04T01:17:48.531Z,14.90
2018-06-04T01:20:18.063Z,14.90
2018-06-04T01:22:50.115Z,14.90
2018-06-04T01:25:19.486Z,14.90
2018-06-04T01:27:48.854Z,15.00
2018-06-04T01:30:18.525Z,14.90
2018-06-04T01:32:48.231Z,14.90
2018-06-04T01:37:47.493Z,15.00
2018-06-04T01:40:16.986Z,15.00
2018-06-04T01:42:46.417Z,15.00
2018-06-04T01:45:15.906Z,15.10
2018-06-04T01:47:45.725Z,15.00
2018-06-04T01:50:15.389Z,15.00
2018-06-04T01:52:44.867Z,15.10
2018-06-04T01:55:14.654Z,15.10
2018-06-04T01:57:45.221Z,15.20
2018-06-04T02:00:15.493Z,15.10
2018-06-04T02:02:45.537Z,15.10
2018-06-04T02:05:15.419Z,15.20
2018-06-04T02:07:45.913Z,15.10
2018-06-04T02:10:15.665Z,15.10
2018-06-04T02:15:14.347Z,15.20
2018-06-04T02:17:46.335Z,15.20
2018-06-04T02:20:15.837Z,15.20
2018-06-04T02:25:14.595Z,15.20
2018-06-04T02:27:45.581Z,15.20
2018-06-04T02:32:44.161Z,15.20
2018-06-04T02:35:13.512Z,15.20
2018-06-04T02:40:13.836Z,15.30
2018-06-04T02:42:43.502Z,15.20
2018-06-04T02:45:12.927Z,15.20
2018-06-04T02:47:42.496Z,15.30
2018-06-04T02:50:12.042Z,15.30
2018-06-04T02:52:41.723Z,15.30
2018-06-04T02:55:11.753Z,15.20
2018-06-04T02:57:41.418Z,15.20
2018-06-04T03:00:10.812Z,15.30
2018-06-04T03:02:40.485Z,15.20
2018-06-04T03:05:10.634Z,15.30
2018-06-04T03:07:40.120Z,15.30
2018-06-04T03:10:10.139Z,15.30
2018-06-04T03:12:39.874Z,15.30
2018-06-04T03:15:09.498Z,15.30
2018-06-04T03:17:38.934Z,15.30
2018-06-04T03:20:09.166Z,15.30
2018-06-04T03:22:38.521Z,15.20
2018-06-04T03:25:08.156Z,15.20
2018-06-04T03:27:37.567Z,15.20
2018-06-04T03:30:08.100Z,15.20
2018-06-04T03:32:38.048Z,15.20
2018-06-04T03:35:07.839Z,15.30
2018-06-04T03:37:38.396Z,15.20
2018-06-04T03:40:07.951Z,15.30
2018-06-04T03:42:37.377Z,15.30
2018-06-04T03:45:06.954Z,15.30
2018-06-04T03:47:36.542Z,15.40
2018-06-04T03:50:06.206Z,15.30
2018-06-04T03:52:36.308Z,15.30
2018-06-04T03:55:05.980Z,15.30
2018-06-04T03:57:35.796Z,15.30
2018-06-04T04:00:05.677Z,15.40
2018-06-04T04:02:35.234Z,15.40
2018-06-04T04:05:04.728Z,15.40
2018-06-04T04:07:34.955Z,15.40
2018-06-04T04:10:04.537Z,15.40
2018-06-04T04:12:34.078Z,15.40
2018-06-04T04:15:04.640Z,15.50
2018-06-04T04:17:34.301Z,15.50
2018-06-04T04:20:03.968Z,15.40
2018-06-04T04:22:34.132Z,15.40
2018-06-04T04:25:04.082Z,15.50
2018-06-04T04:27:34.784Z,15.40
2018-06-04T04:30:05.506Z,15.40
2018-06-04T04:32:37.441Z,15.40
2018-06-04T04:35:07.795Z,15.40
2018-06-04T04:37:38.120Z,15.40
2018-06-04T04:42:40.327Z,15.40
2018-06-04T04:45:09.942Z,15.40
2018-06-04T04:47:41.897Z,15.40
2018-06-04T04:50:12.329Z,15.40
2018-06-04T04:52:42.929Z,15.40
2018-06-04T04:55:14.214Z,15.40
2018-06-04T04:57:45.634Z,15.40
2018-06-04T05:00:15.642Z,15.40
2018-06-04T05:02:46.275Z,15.40
2018-06-04T05:05:15.813Z,15.40
2018-06-04T05:07:46.384Z,15.40
2018-06-04T05:10:17.141Z,15.40
2018-06-04T05:12:48.375Z,15.40
2018-06-04T05:15:18.787Z,15.50
2018-06-04T05:17:50.407Z,15.40
2018-06-04T05:20:21.249Z,15.40
2018-06-04T05:22:50.865Z,15.40
2018-06-04T05:25:21.025Z,15.40
2018-06-04T05:27:50.499Z,15.50
2018-06-04T05:30:21.711Z,15.50
2018-06-04T05:32:52.589Z,15.50
2018-06-04T05:35:24.007Z,15.60
2018-06-04T05:37:53.945Z,15.60
2018-06-04T05:40:24.304Z,15.60
2018-06-04T05:42:53.787Z,15.70
2018-06-04T05:45:23.955Z,15.70
2018-06-04T05:47:54.237Z,15.70
2018-06-04T05:50:24.051Z,15.80
2018-06-04T05:52:53.766Z,15.80
2018-06-04T05:55:23.671Z,15.90
2018-06-04T05:57:54.411Z,15.80
2018-06-04T06:00:24.109Z,15.80
2018-06-04T06:02:54.538Z,15.80
2018-06-04T06:05:24.085Z,15.80
2018-06-04T06:07:54.528Z,15.80
2018-06-04T06:12:54.709Z,15.70
2018-06-04T06:15:25.722Z,15.60
2018-06-04T06:17:55.604Z,15.70
2018-06-04T06:20:25.228Z,15.70
2018-06-04T06:22:55.641Z,15.70
2018-06-04T06:25:26.080Z,15.70
2018-06-04T06:27:56.852Z,15.70
2018-06-04T06:30:27.543Z,15.80
2018-06-04T06:32:57.174Z,15.80
2018-06-04T06:35:26.766Z,15.80
2018-06-04T06:37:57.401Z,15.80
2018-06-04T06:40:27.150Z,15.90
2018-06-04T06:42:57.530Z,15.90
2018-06-04T06:45:29.152Z,15.90
2018-06-04T06:47:58.545Z,15.90
2018-06-04T06:50:28.700Z,16.00
2018-06-04T06:52:58.737Z,16.00
2018-06-04T06:55:28.707Z,16.00
2018-06-04T06:57:58.661Z,16.00
2018-06-04T07:10:15.089Z,16.00
2018-06-04T07:12:44.767Z,16.10
2018-06-04T07:15:15.054Z,16.10
2018-06-04T07:17:45.302Z,16.20
2018-06-04T07:20:15.555Z,16.30
2018-06-04T07:22:45.071Z,16.20
2018-06-04T07:25:14.479Z,16.30
2018-06-04T07:27:44.594Z,16.30
2018-06-04T07:30:14.983Z,16.30
2018-06-04T07:32:45.786Z,16.30
2018-06-04T07:35:17.954Z,16.40
2018-06-04T07:37:48.807Z,16.30
2018-06-04T07:40:18.637Z,16.30
2018-06-04T07:42:48.311Z,16.30
2018-06-04T07:45:18.385Z,16.40
2018-06-04T07:47:48.689Z,16.40
2018-06-04T07:50:18.383Z,16.50
2018-06-04T07:52:47.846Z,16.50
2018-06-04T07:55:18.647Z,16.50
2018-06-04T07:57:48.728Z,16.50
2018-06-04T08:00:18.688Z,16.60
2018-06-04T08:02:49.053Z,16.60
2018-06-04T08:05:19.418Z,16.70
2018-06-04T08:07:49.062Z,16.70
2018-06-04T08:10:18.734Z,16.80
2018-06-04T08:15:17.939Z,16.90
2018-06-04T08:17:49.078Z,16.90
2018-06-04T08:20:19.481Z,16.90
2018-06-04T08:25:02.889Z,16.80
2018-06-04T08:27:33.974Z,16.80
2018-06-04T08:30:04.829Z,16.80
2018-06-04T08:32:35.430Z,16.80
2018-06-04T08:35:05.186Z,16.80
2018-06-04T08:37:36.993Z,16.90
2018-06-04T08:40:07.293Z,16.80
2018-06-04T08:42:36.878Z,17.00
2018-06-04T08:45:06.947Z,17.10
2018-06-04T08:47:36.586Z,17.00
2018-06-04T08:50:06.196Z,17.10
2018-06-04T08:52:35.878Z,17.00
2018-06-04T08:55:05.642Z,17.20
2018-06-04T08:57:35.184Z,17.20
2018-06-04T09:00:05.165Z,17.20
2018-06-04T09:02:36.357Z,17.20
2018-06-04T09:05:05.993Z,17.30
2018-06-04T09:07:36.285Z,17.20
2018-06-04T09:10:06.339Z,17.20
2018-06-04T09:12:36.415Z,17.30
2018-06-04T09:15:06.062Z,17.20
2018-06-04T09:17:35.705Z,17.20
2018-06-04T09:22:34.866Z,17.40
2018-06-04T09:25:04.997Z,17.30
2018-06-04T09:27:34.203Z,17.50
2018-06-04T09:30:03.765Z,17.60
2018-06-04T09:32:33.024Z,17.80
2018-06-04T09:35:02.658Z,17.90
2018-06-04T09:37:31.951Z,17.90
2018-06-04T09:40:01.258Z,17.90
2018-06-04T09:42:30.765Z,18.00
2018-06-04T09:45:00.007Z,18.20
2018-06-04T09:47:29.971Z,18.30
2018-06-04T09:50:00.252Z,18.20
2018-06-04T09:52:29.533Z,18.10
2018-06-04T09:54:58.729Z,18.10
2018-06-04T09:57:28.786Z,18.00
2018-06-04T09:59:58.015Z,18.10
2018-06-04T10:02:27.333Z,18.10
2018-06-04T10:04:57.007Z,18.20
2018-06-04T10:07:26.498Z,18.10
2018-06-04T10:09:56.221Z,18.20
2018-06-04T10:12:25.794Z,18.10
2018-06-04T10:14:55.795Z,18.20
2018-06-04T10:17:25.776Z,18.40
2018-06-04T10:19:57.225Z,18.70
2018-06-04T10:22:27.255Z,18.60
2018-06-04T10:24:58.127Z,18.60
2018-06-04T10:27:27.592Z,18.50
2018-06-04T10:29:57.325Z,18.50
2018-06-04T10:34:57.068Z,18.40
2018-06-04T10:37:27.014Z,18.60
2018-06-04T10:39:57.312Z,18.60
2018-06-04T10:42:26.824Z,18.60
2018-06-04T10:44:56.313Z,18.50
2018-06-04T10:47:26.881Z,18.60
2018-06-04T10:49:56.259Z,18.70
2018-06-04T10:52:25.719Z,18.60
2018-06-04T10:54:55.251Z,18.50
2018-06-04T10:57:25.196Z,18.70
2018-06-04T10:59:55.143Z,19.00
2018-06-04T11:02:24.648Z,19.00
2018-06-04T11:04:54.843Z,19.10
2018-06-04T11:07:24.295Z,19.00
2018-06-04T11:09:54.325Z,18.70
2018-06-04T11:12:23.806Z,18.50
2018-06-04T11:14:53.124Z,18.40
2018-06-04T11:17:22.685Z,18.50
2018-06-04T11:19:52.168Z,18.60
2018-06-04T11:22:22.227Z,18.60
2018-06-04T11:24:51.836Z,18.60
2018-06-04T11:27:21.355Z,18.70
2018-06-04T11:29:51.825Z,18.80
2018-06-04T11:32:21.317Z,19.10
2018-06-04T11:34:51.450Z,19.30
2018-06-04T11:37:21.072Z,19.20
2018-06-04T11:39:50.569Z,19.40
2018-06-04T11:42:19.978Z,19.20
2018-06-04T11:44:49.462Z,19.10
2018-06-04T11:47:19.988Z,19.40
2018-06-04T11:49:50.540Z,19.60
2018-06-04T11:52:20.141Z,19.70
2018-06-04T11:54:49.746Z,19.50
2018-06-04T11:57:20.686Z,19.60
2018-06-04T11:59:50.039Z,19.40
2018-06-04T12:04:49.154Z,19.80
2018-06-04T12:07:18.674Z,19.90
2018-06-04T12:09:48.370Z,19.90
2018-06-04T12:12:18.672Z,20.00
2018-06-04T12:14:49.801Z,20.00
2018-06-04T12:17:20.117Z,19.80
2018-06-04T12:19:49.623Z,19.80
2018-06-04T12:22:19.280Z,19.80
2018-06-04T12:24:49.402Z,19.70
2018-06-04T12:27:19.492Z,19.80
2018-06-04T12:29:50.329Z,19.70
2018-06-04T12:32:20.045Z,19.80
2018-06-04T12:34:49.788Z,20.00
2018-06-04T12:37:20.007Z,20.20
2018-06-04T12:39:49.472Z,20.10
2018-06-04T12:42:19.340Z,20.20
2018-06-04T12:44:48.930Z,20.50
2018-06-04T12:47:18.427Z,20.50
2018-06-04T12:49:48.136Z,20.70
2018-06-04T12:52:18.438Z,20.80
2018-06-04T12:54:48.158Z,20.80
2018-06-04T12:57:18.402Z,21.00
2018-06-04T12:59:48.206Z,21.20
2018-06-04T13:02:18.022Z,21.30
2018-06-04T13:04:49.872Z,21.40
2018-06-04T13:07:19.683Z,21.60
2018-06-04T13:09:49.824Z,21.50
2018-06-04T13:12:19.870Z,21.70
2018-06-04T13:14:50.144Z,21.70
2018-06-04T13:17:19.706Z,21.60
2018-06-04T13:19:49.379Z,21.50
2018-06-04T13:22:18.802Z,21.60
2018-06-04T13:24:48.803Z,21.80
2018-06-04T13:27:18.422Z,21.70
2018-06-04T13:29:48.247Z,21.60
2018-06-04T13:32:18.559Z,21.90
2018-06-04T13:34:47.954Z,21.70
2018-06-04T13:37:17.882Z,21.50
2018-06-04T13:39:47.475Z,21.60
2018-06-04T13:42:17.060Z,21.90
2018-06-04T13:44:46.852Z,21.90
2018-06-04T13:47:16.764Z,21.90
2018-06-04T13:49:47.829Z,21.90
2018-06-04T13:52:18.150Z,21.80
2018-06-04T13:54:48.009Z,21.70
2018-06-04T13:57:18.299Z,21.80
2018-06-04T13:59:49.700Z,21.60
2018-06-04T14:02:19.820Z,21.60
2018-06-04T14:04:49.817Z,21.80
2018-06-04T14:07:19.391Z,21.90
2018-06-04T14:09:48.840Z,21.60
2018-06-04T14:12:19.369Z,21.50
2018-06-04T14:14:50.793Z,21.70
2018-06-04T14:17:20.337Z,22.00
2018-06-04T14:19:50.053Z,21.70
2018-06-04T14:22:19.956Z,21.70
2018-06-04T14:24:49.845Z,21.60
2018-06-04T14:27:19.637Z,21.30
2018-06-04T14:29:49.493Z,21.30
2018-06-04T14:32:19.627Z,21.30
2018-06-04T14:34:49.475Z,21.40
2018-06-04T14:37:19.355Z,21.20
2018-06-04T14:39:50.304Z,21.30
2018-06-04T14:42:20.166Z,21.70
2018-06-04T14:44:50.658Z,21.80
2018-06-04T14:47:20.495Z,21.80
2018-06-04T14:49:50.860Z,21.70
2018-06-04T14:52:20.626Z,21.80
2018-06-04T14:54:50.704Z,22.00
2018-06-04T14:57:20.301Z,21.70
2018-06-04T14:59:49.972Z,21.70
2018-06-04T15:02:21.050Z,21.90
2018-06-04T15:04:51.018Z,21.80
2018-06-04T15:07:20.569Z,21.70
2018-06-04T15:09:50.343Z,21.70
2018-06-04T15:12:19.936Z,21.70
2018-06-04T15:14:50.654Z,21.60
2018-06-04T15:17:20.353Z,21.60
2018-06-04T15:19:50.193Z,21.80
2018-06-04T15:22:20.530Z,21.80
2018-06-04T15:24:50.262Z,21.50
2018-06-04T15:27:20.120Z,21.50
2018-06-04T15:29:49.953Z,21.30
2018-06-04T15:32:19.617Z,21.30
2018-06-04T15:34:50.038Z,21.30
2018-06-04T15:37:21.746Z,21.20
2018-06-04T15:39:52.336Z,21.00
2018-06-04T15:42:22.031Z,21.00
2018-06-04T15:44:52.725Z,21.20
2018-06-04T15:47:22.089Z,21.30
2018-06-04T15:49:51.449Z,21.20
2018-06-04T15:52:22.447Z,21.20
2018-06-04T15:54:52.334Z,21.40
2018-06-04T15:57:23.299Z,21.70
2018-06-04T15:59:52.557Z,21.40
2018-06-04T16:02:21.848Z,21.20
2018-06-04T16:04:51.901Z,21.30
2018-06-04T16:07:21.175Z,21.50
2018-06-04T16:09:50.499Z,21.60
2018-06-04T16:12:19.804Z,21.70
2018-06-04T16:14:49.067Z,21.90
2018-06-04T16:17:18.295Z,21.60
2018-06-04T16:19:47.653Z,21.70
2018-06-04T16:22:16.872Z,21.70
2018-06-04T16:24:46.858Z,21.30
2018-06-04T16:27:16.541Z,21.40
2018-06-04T16:29:45.854Z,21.50
2018-06-04T16:32:15.221Z,21.60
2018-06-04T16:34:46.174Z,21.30
2018-06-04T16:37:15.548Z,21.10
2018-06-04T16:39:45.921Z,21.30
2018-06-04T16:42:15.871Z,21.40
2018-06-04T16:44:46.295Z,21.50
2018-06-04T16:47:16.198Z,21.60
2018-06-04T16:49:46.916Z,21.50
2018-06-04T16:52:16.872Z,21.40
2018-06-04T16:54:46.613Z,21.40
2018-06-04T16:59:47.201Z,20.60
2018-06-04T17:02:16.942Z,20.60
2018-06-04T17:04:46.537Z,20.80
2018-06-04T17:07:16.000Z,20.40
2018-06-04T17:09:46.913Z,20.20
2018-06-04T17:12:17.389Z,20.00
2018-06-04T17:14:46.994Z,19.80
2018-06-04T17:17:16.830Z,19.70
2018-06-04T17:19:46.512Z,19.50
2018-06-04T17:22:16.127Z,19.50
2018-06-04T17:24:46.664Z,19.40
2018-06-04T17:27:16.577Z,19.30
2018-06-04T17:29:46.257Z,19.20
2018-06-04T17:32:16.014Z,19.00
2018-06-04T17:37:16.310Z,18.70
2018-06-04T17:39:45.977Z,18.70
2018-06-04T17:42:15.848Z,18.70
2018-06-04T17:44:45.453Z,18.60
2018-06-04T17:47:15.569Z,18.60
2018-06-04T17:49:45.906Z,18.30
2018-06-04T17:52:15.700Z,18.00
2018-06-04T17:54:45.393Z,18.00
2018-06-04T17:57:14.928Z,17.80
2018-06-04T17:59:44.787Z,17.70
2018-06-04T18:02:15.608Z,17.70
2018-06-04T18:04:46.010Z,17.50
2018-06-04T18:07:17.983Z,17.50
2018-06-04T18:09:48.840Z,17.40
2018-06-04T18:12:18.891Z,17.40
2018-06-04T18:14:48.382Z,17.30
2018-06-04T18:17:20.287Z,17.30
2018-06-04T18:19:50.352Z,17.30
2018-06-04T18:22:20.501Z,17.30
2018-06-04T18:24:51.194Z,17.20
